Time;durP1;ratioP1;P1;durP2;ratioP2;P2;SDS_P1;SDS_P2;PMS_P1;PMS_P2;Temp;Humidity;BMP_temperature;BMP_pressure;BME280_temperature;BME280_humidity;BME280_pressure;Samples;Min_cycle;Max_cycle;Signal;HPM_P1;HPM_P2
2022/12/25 00:01:22;;;;;;;12.40;5.27;;;8.50;99.90;;;;;;5015628;28;20506;-68
2022/12/25 00:03:49;;;;;;;15.60;5.30;;;8.50;99.90;;;;;;5017197;28;20486;-68
2022/12/25 00:06:17;;;;;;;12.70;4.97;;;8.50;99.90;;;;;;5035144;28;20959;-68
2022/12/25 00:08:46;;;;;;;13.27;5.50;;;8.40;99.90;;;;;;5036010;28;20768;-68
2022/12/25 00:11:16;;;;;;;8.33;5.03;;;8.40;99.90;;;;;;5036093;28;20458;-68
2022/12/25 00:13:43;;;;;;;13.13;4.67;;;8.30;99.90;;;;;;5036281;28;20498;-68
2022/12/25 00:16:14;;;;;;;12.50;5.10;;;8.30;99.90;;;;;;5036367;28;20463;-68
2022/12/25 00:18:42;;;;;;;11.67;6.00;;;8.20;99.90;;;;;;5035741;28;20471;-68
2022/12/25 00:21:10;;;;;;;13.23;4.50;;;8.30;99.90;;;;;;5035906;28;20963;-68
2022/12/25 00:23:38;;;;;;;16.80;6.00;;;8.20;99.90;;;;;;5035686;28;20470;-68
2022/12/25 00:26:08;;;;;;;14.23;5.20;;;8.20;99.90;;;;;;5035195;28;20545;-68
2022/12/25 00:28:35;;;;;;;8.50;4.83;;;8.20;99.90;;;;;;5035639;28;20560;-68
2022/12/25 00:31:06;;;;;;;8.53;5.23;;;8.20;99.90;;;;;;5035067;28;20529;-68
2022/12/25 00:33:35;;;;;;;9.47;4.90;;;8.20;99.90;;;;;;5035799;28;20459;-68
2022/12/25 00:36:04;;;;;;;11.80;6.03;;;8.20;99.90;;;;;;5036256;28;20473;-68
2022/12/25 00:38:33;;;;;;;8.10;4.60;;;8.20;99.90;;;;;;5035710;28;20467;-68
2022/12/25 00:41:04;;;;;;;10.53;5.00;;;8.30;99.90;;;;;;5035958;28;20769;-68
2022/12/25 00:43:32;;;;;;;12.00;4.67;;;8.20;99.90;;;;;;5035879;28;20438;-68
2022/12/25 00:46:02;;;;;;;15.97;5.47;;;8.20;99.90;;;;;;5035875;28;20485;-68
2022/12/25 00:48:30;;;;;;;18.17;5.73;;;8.20;99.90;;;;;;5037942;28;20489;-68
2022/12/25 00:50:58;;;;;;;13.20;5.40;;;8.20;99.90;;;;;;5039586;28;20823;-68
2022/12/25 00:53:27;;;;;;;8.37;4.87;;;8.20;99.90;;;;;;5039333;28;20497;-68
2022/12/25 00:55:56;;;;;;;8.03;5.27;;;8.20;99.90;;;;;;5039835;28;20550;-68
2022/12/25 00:58:24;;;;;;;11.33;5.13;;;8.30;99.90;;;;;;5039117;28;20473;-68
2022/12/25 01:00:53;;;;;;;9.53;4.30;;;8.30;99.90;;;;;;5039426;28;20747;-68
2022/12/25 01:03:20;;;;;;;10.80;4.50;;;8.40;99.90;;;;;;5038477;28;20462;-68
2022/12/25 01:05:55;;;;;;;12.00;4.87;;;8.40;99.90;;;;;;5038753;28;20494;-68
2022/12/25 01:08:23;;;;;;;8.57;4.73;;;8.40;99.90;;;;;;5038635;28;20462;-68
2022/12/25 01:10:53;;;;;;;11.77;4.87;;;8.40;99.90;;;;;;5039070;28;20470;-68
2022/12/25 01:13:21;;;;;;;15.30;5.00;;;8.40;99.90;;;;;;5039293;28;20438;-68
2022/12/25 01:15:48;;;;;;;6.13;4.03;;;8.30;99.90;;;;;;5039460;28;20467;-68
2022/12/25 01:18:17;;;;;;;10.40;5.00;;;8.40;99.90;;;;;;5039397;28;20463;-68
2022/12/25 01:20:44;;;;;;;8.60;4.10;;;8.40;99.90;;;;;;5038776;28;20494;-68
2022/12/25 01:23:11;;;;;;;10.00;3.87;;;8.40;99.90;;;;;;5038596;28;20494;-68
2022/12/25 01:25:38;;;;;;;10.17;4.23;;;8.50;99.90;;;;;;5038916;28;20463;-68
2022/12/25 01:28:05;;;;;;;12.07;4.40;;;8.50;99.90;;;;;;5039113;28;20438;-68
2022/12/25 01:30:34;;;;;;;12.23;4.40;;;8.50;99.90;;;;;;5037323;28;20466;-68
2022/12/25 01:33:01;;;;;;;9.93;4.83;;;8.50;99.90;;;;;;5038379;28;20471;-68
2022/12/25 01:35:30;;;;;;;14.87;5.00;;;8.50;99.90;;;;;;5038329;28;20470;-68
2022/12/25 01:37:57;;;;;;;7.50;4.20;;;8.50;99.90;;;;;;5038878;28;20463;-68
2022/12/25 01:40:24;;;;;;;9.00;4.27;;;8.60;99.90;;;;;;5037720;28;20501;-68
2022/12/25 01:42:52;;;;;;;8.23;4.40;;;8.60;99.90;;;;;;5037621;28;20570;-67
2022/12/25 01:45:38;;;;;;;9.90;4.97;;;8.60;99.90;;;;;;5038189;28;20469;-68
2022/12/25 01:48:09;;;;;;;8.40;4.00;;;8.60;99.90;;;;;;5038425;28;20469;-68
2022/12/25 01:50:41;;;;;;;11.80;4.13;;;8.60;99.90;;;;;;5038271;28;20455;-68
2022/12/25 01:53:08;;;;;;;9.30;4.77;;;8.70;99.90;;;;;;5038361;28;20467;-67
2022/12/25 01:55:38;;;;;;;8.03;4.20;;;8.70;99.90;;;;;;5038426;28;20469;-68
2022/12/25 01:58:05;;;;;;;9.37;4.40;;;8.70;99.90;;;;;;5038529;28;20470;-67
2022/12/25 02:00:33;;;;;;;9.13;4.43;;;8.70;99.90;;;;;;5037246;28;20958;-67
2022/12/25 02:03:00;;;;;;;8.90;4.53;;;8.70;99.90;;;;;;5038046;28;20779;-67
2022/12/25 02:05:30;;;;;;;9.80;4.73;;;8.70;99.90;;;;;;5037248;28;20491;-68
2022/12/25 02:08:02;;;;;;;12.23;5.07;;;8.80;99.90;;;;;;5038243;28;20561;-68
2022/12/25 02:10:29;;;;;;;8.73;4.17;;;8.80;99.90;;;;;;5038286;28;20489;-68
2022/12/25 02:12:57;;;;;;;6.20;3.60;;;8.80;99.90;;;;;;5037970;28;20502;-68
2022/12/25 02:15:32;;;;;;;7.93;4.03;;;8.80;99.90;;;;;;5038022;28;20764;-69
2022/12/25 02:18:07;;;;;;;6.73;4.20;;;8.90;99.90;;;;;;5037956;28;20773;-69
2022/12/25 02:20:59;;;;;;;8.80;4.37;;;8.90;99.90;;;;;;5038014;28;20521;-68
2022/12/25 02:24:02;;;;;;;8.70;3.90;;;8.90;99.90;;;;;;5037297;28;20989;-69
2022/12/25 02:26:50;;;;;;;9.83;4.70;;;8.90;99.90;;;;;;5037650;28;20740;-68
2022/12/25 02:29:25;;;;;;;6.70;3.87;;;8.90;99.90;;;;;;5037422;28;20463;-69
2022/12/25 02:31:59;;;;;;;6.67;4.43;;;8.90;99.90;;;;;;5037229;28;20455;-68
2022/12/25 02:34:32;;;;;;;5.93;3.87;;;8.90;99.90;;;;;;5036916;28;20466;-68
2022/12/25 02:37:06;;;;;;;12.37;3.73;;;8.90;99.90;;;;;;5037799;28;20756;-68
2022/12/25 02:39:58;;;;;;;7.43;3.83;;;8.90;99.90;;;;;;5037433;28;20463;-68
2022/12/25 03:08:11;;;;;;;11.13;3.67;;;9.00;99.90;;;;;;4975670;28;20438;-68
2022/12/25 03:13:31;;;;;;;5.70;4.00;;;9.00;99.90;;;;;;5012902;28;20759;-68
2022/12/25 03:18:45;;;;;;;9.77;3.73;;;9.00;99.90;;;;;;5036244;28;20446;-68
2022/12/25 03:26:55;;;;;;;9.67;5.00;;;9.00;99.90;;;;;;5055920;28;20591;-68
2022/12/25 03:32:14;;;;;;;9.20;4.27;;;9.00;99.90;;;;;;5056206;28;20438;-68
2022/12/25 04:36:18;;;;;;;7.43;4.10;;;9.10;99.90;;;;;;5059484;28;20484;-68
2022/12/25 04:38:45;;;;;;;7.70;3.83;;;9.10;99.90;;;;;;5059535;28;20848;-68
2022/12/25 04:41:14;;;;;;;6.97;4.20;;;9.10;99.90;;;;;;5059008;28;20497;-68
2022/12/25 04:43:42;;;;;;;8.70;4.17;;;9.10;99.90;;;;;;5059330;28;20793;-68
2022/12/25 04:46:09;;;;;;;8.73;4.00;;;9.10;99.90;;;;;;5059427;28;20461;-68
2022/12/25 04:48:37;;;;;;;13.50;4.90;;;9.20;99.90;;;;;;5059307;28;20484;-68
2022/12/25 04:51:15;;;;;;;10.23;4.43;;;9.20;99.90;;;;;;5059219;28;20480;-68
2022/12/25 04:53:42;;;;;;;6.90;4.07;;;9.10;99.90;;;;;;5059171;28;20477;-68
2022/12/25 04:56:10;;;;;;;6.70;3.97;;;9.20;99.90;;;;;;5059503;28;20462;-68
2022/12/25 04:58:39;;;;;;;15.03;4.47;;;9.20;99.90;;;;;;5059400;28;20462;-68
2022/12/25 05:01:06;;;;;;;11.77;3.93;;;9.20;99.90;;;;;;5058983;28;20490;-68
2022/12/25 05:03:34;;;;;;;9.67;3.90;;;9.20;99.90;;;;;;5059154;28;20472;-68
2022/12/25 05:06:02;;;;;;;11.90;4.93;;;9.20;99.90;;;;;;5058298;28;20486;-68
2022/12/25 05:08:32;;;;;;;8.63;4.03;;;9.20;99.90;;;;;;5059343;28;20945;-68
2022/12/25 05:11:00;;;;;;;8.17;4.73;;;9.20;99.90;;;;;;5058902;28;20501;-68
2022/12/25 05:13:27;;;;;;;6.63;4.20;;;9.20;99.90;;;;;;5058936;28;20466;-68
2022/12/25 05:15:55;;;;;;;7.90;3.60;;;9.20;99.90;;;;;;5059154;28;20470;-68
2022/12/25 05:18:23;;;;;;;7.77;3.87;;;9.20;99.90;;;;;;5058445;28;20465;-68
2022/12/25 05:20:53;;;;;;;7.70;4.27;;;9.20;99.90;;;;;;5058298;28;20494;-67
2022/12/25 05:23:21;;;;;;;10.80;4.10;;;9.20;99.90;;;;;;5058942;28;20879;-68
2022/12/25 05:25:48;;;;;;;7.00;3.73;;;9.20;99.90;;;;;;5058758;28;20472;-68
2022/12/25 05:28:16;;;;;;;8.27;4.23;;;9.20;99.90;;;;;;5058578;28;20462;-69
2022/12/25 05:30:43;;;;;;;10.30;4.20;;;9.20;99.90;;;;;;5057703;28;20454;-68
2022/12/25 05:33:11;;;;;;;9.90;4.20;;;9.10;99.90;;;;;;5057987;28;20462;-68
2022/12/25 05:35:39;;;;;;;12.27;3.80;;;9.10;99.90;;;;;;5057066;28;20462;-68
2022/12/25 05:38:07;;;;;;;9.10;3.70;;;9.10;99.90;;;;;;5058388;28;20488;-68
2022/12/25 05:40:34;;;;;;;7.00;3.60;;;9.00;99.90;;;;;;5058811;28;20468;-68
2022/12/25 05:43:02;;;;;;;5.67;3.27;;;9.00;99.90;;;;;;5058660;28;20748;-69
2022/12/25 05:45:29;;;;;;;8.93;3.50;;;8.90;99.90;;;;;;5058164;28;20467;-69
2022/12/25 05:47:56;;;;;;;10.07;4.50;;;8.90;99.90;;;;;;5058222;28;20496;-68
2022/12/25 05:50:24;;;;;;;8.13;3.97;;;8.80;99.90;;;;;;5058454;28;20845;-68
2022/12/25 05:52:52;;;;;;;7.90;3.53;;;8.80;99.90;;;;;;5058089;28;20758;-68
2022/12/25 05:55:19;;;;;;;13.47;3.47;;;8.80;99.90;;;;;;5057663;28;20475;-69
2022/12/25 05:57:46;;;;;;;10.53;4.03;;;8.80;99.90;;;;;;5058231;28;20506;-68
2022/12/25 06:00:14;;;;;;;5.67;3.20;;;8.80;99.90;;;;;;5058148;28;20552;-68
2022/12/25 06:02:41;;;;;;;11.10;4.40;;;8.90;99.90;;;;;;5057771;28;20934;-68
2022/12/25 06:05:09;;;;;;;10.80;3.93;;;8.90;99.90;;;;;;5057473;28;20496;-68
2022/12/25 06:07:38;;;;;;;8.30;3.30;;;9.00;99.90;;;;;;5058117;28;20937;-68
2022/12/25 06:10:06;;;;;;;9.73;4.27;;;8.90;99.90;;;;;;5038271;28;20550;-68
2022/12/25 06:12:33;;;;;;;8.10;3.93;;;8.90;99.90;;;;;;5037483;28;20529;-68
2022/12/25 06:15:00;;;;;;;10.47;6.30;;;8.90;99.90;;;;;;5037814;28;20473;-68
2022/12/25 06:17:28;;;;;;;7.80;3.57;;;8.80;99.90;;;;;;5037900;28;20471;-68
2022/12/25 06:19:55;;;;;;;8.80;3.83;;;8.80;99.90;;;;;;5037704;28;20468;-68
2022/12/25 06:22:22;;;;;;;8.03;3.90;;;8.70;99.90;;;;;;5038018;28;20495;-68
2022/12/25 06:24:51;;;;;;;12.70;4.47;;;8.80;99.90;;;;;;5037598;28;20468;-68
2022/12/25 06:27:18;;;;;;;8.23;3.70;;;8.80;99.90;;;;;;5038091;28;20546;-68
2022/12/25 06:29:45;;;;;;;9.70;4.53;;;8.80;99.90;;;;;;5037103;28;20900;-68
2022/12/25 06:32:12;;;;;;;8.50;4.10;;;8.80;99.90;;;;;;5037338;28;20493;-68
2022/12/25 06:34:39;;;;;;;6.90;3.37;;;8.80;99.90;;;;;;5037441;28;20467;-68
2022/12/25 06:37:06;;;;;;;7.67;4.23;;;8.80;99.90;;;;;;5037338;28;20463;-68
2022/12/25 06:39:34;;;;;;;6.33;3.80;;;8.80;99.90;;;;;;5037360;28;20891;-68
2022/12/25 06:42:02;;;;;;;7.20;3.77;;;8.80;99.90;;;;;;5037071;28;20493;-68
2022/12/25 06:44:30;;;;;;;11.40;4.03;;;8.80;99.90;;;;;;5037384;28;20931;-68
2022/12/25 06:46:57;;;;;;;5.77;3.20;;;8.80;99.90;;;;;;5036706;28;20469;-68
2022/12/25 06:49:24;;;;;;;10.03;4.10;;;8.80;99.90;;;;;;5037032;28;20467;-68
2022/12/25 06:51:52;;;;;;;8.07;4.10;;;8.80;99.90;;;;;;5037469;28;20465;-68
2022/12/25 06:54:19;;;;;;;11.23;4.13;;;8.80;99.90;;;;;;5037532;28;20463;-68
2022/12/25 06:56:46;;;;;;;9.67;3.70;;;8.80;99.90;;;;;;5037189;28;20474;-68
2022/12/25 06:59:15;;;;;;;8.97;4.43;;;8.80;99.90;;;;;;5036954;28;20467;-69
2022/12/25 07:01:46;;;;;;;8.40;3.93;;;8.80;99.90;;;;;;5036986;28;20490;-68
2022/12/25 07:04:16;;;;;;;8.43;4.40;;;8.80;99.90;;;;;;5037231;28;20454;-67
2022/12/25 07:06:44;;;;;;;10.10;4.63;;;8.70;99.90;;;;;;5037046;28;20465;-68
2022/12/25 07:09:11;;;;;;;9.27;3.47;;;8.70;99.90;;;;;;5037172;28;20465;-68
2022/12/25 07:11:38;;;;;;;12.93;4.30;;;8.80;99.90;;;;;;5036550;28;20509;-68
2022/12/25 07:14:05;;;;;;;8.93;4.20;;;8.80;99.90;;;;;;5036407;28;20773;-68
2022/12/25 07:16:34;;;;;;;7.20;3.63;;;8.80;99.90;;;;;;5039430;28;21240;-68
2022/12/25 07:19:01;;;;;;;9.60;4.20;;;8.80;99.90;;;;;;5056284;28;20462;-68
2022/12/25 07:21:28;;;;;;;8.67;4.13;;;8.80;99.90;;;;;;5055912;28;20493;-68
2022/12/25 07:23:55;;;;;;;7.10;4.17;;;8.80;99.90;;;;;;5056043;28;20480;-68
2022/12/25 07:26:22;;;;;;;13.97;4.20;;;8.80;99.90;;;;;;5056398;28;20466;-68
2022/12/25 07:28:49;;;;;;;11.60;4.60;;;8.90;99.90;;;;;;5056179;28;20466;-68
2022/12/25 07:31:18;;;;;;;13.13;5.03;;;8.90;99.90;;;;;;5056473;28;20466;-68
2022/12/25 07:33:47;;;;;;;11.67;4.30;;;8.90;99.90;;;;;;5056540;28;20556;-68
2022/12/25 07:36:15;;;;;;;8.53;3.70;;;8.90;99.90;;;;;;5056775;28;20472;-68
2022/12/25 07:38:42;;;;;;;7.57;3.73;;;8.90;99.90;;;;;;5056796;28;20476;-67
2022/12/25 07:41:10;;;;;;;9.13;5.03;;;8.90;99.90;;;;;;5056332;28;20466;-67
2022/12/25 07:43:37;;;;;;;13.13;4.80;;;8.90;99.90;;;;;;5056567;28;20486;-68
2022/12/25 07:46:05;;;;;;;11.27;4.47;;;8.90;99.90;;;;;;5056095;28;20761;-67
2022/12/25 07:48:32;;;;;;;8.17;4.57;;;8.90;99.90;;;;;;5055909;28;20467;-67
2022/12/25 07:51:02;;;;;;;8.30;4.30;;;9.00;99.90;;;;;;5055929;28;20472;-68
2022/12/25 07:53:30;;;;;;;13.07;4.80;;;9.00;99.90;;;;;;5056013;28;20458;-68
2022/12/25 07:55:58;;;;;;;13.77;4.63;;;9.00;99.90;;;;;;5056309;28;20763;-67
2022/12/25 07:58:26;;;;;;;8.70;4.70;;;9.00;99.90;;;;;;5055069;28;20469;-67
2022/12/25 08:00:53;;;;;;;8.27;4.60;;;9.00;99.90;;;;;;5056137;28;20462;-67
2022/12/25 08:03:20;;;;;;;10.20;4.20;;;9.00;99.90;;;;;;5027894;28;20584;-67
2022/12/25 08:05:47;;;;;;;11.70;4.67;;;9.00;99.90;;;;;;5016691;28;20807;-67
2022/12/25 08:08:19;;;;;;;10.20;5.00;;;9.00;99.90;;;;;;5017097;28;20464;-68
2022/12/25 08:10:47;;;;;;;11.27;5.20;;;9.10;99.90;;;;;;5017019;28;20463;-67
2022/12/25 08:13:14;;;;;;;11.57;5.40;;;9.00;99.90;;;;;;5016786;28;20470;-68
2022/12/25 08:15:41;;;;;;;13.23;5.70;;;9.10;99.90;;;;;;5017284;28;20904;-67
2022/12/25 08:18:09;;;;;;;8.97;5.50;;;9.10;99.90;;;;;;5016782;28;20464;-66
2022/12/25 08:20:37;;;;;;;13.90;5.23;;;9.10;99.90;;;;;;5016706;28;20468;-68
2022/12/25 08:23:04;;;;;;;6.87;4.87;;;9.10;99.90;;;;;;5015350;28;20487;-67
2022/12/25 08:25:33;;;;;;;6.27;4.70;;;9.20;99.90;;;;;;5014740;28;20470;-67
2022/12/25 08:28:01;;;;;;;11.47;5.67;;;9.20;99.90;;;;;;5014833;28;20745;-67
2022/12/25 08:30:28;;;;;;;7.67;5.40;;;9.20;99.90;;;;;;5014009;28;20492;-66
2022/12/25 08:32:55;;;;;;;8.83;5.20;;;9.20;99.90;;;;;;5014277;28;20518;-67
2022/12/25 08:35:22;;;;;;;9.43;5.03;;;9.20;99.90;;;;;;5015008;28;20471;-66
2022/12/25 08:37:50;;;;;;;7.90;5.40;;;9.20;99.90;;;;;;5015114;28;20468;-66
2022/12/25 08:40:17;;;;;;;7.63;5.10;;;9.20;99.90;;;;;;5017259;28;20484;-67
2022/12/25 08:42:45;;;;;;;9.73;5.07;;;9.20;99.90;;;;;;5017620;28;20495;-67
2022/12/25 08:45:13;;;;;;;6.20;4.67;;;9.20;99.90;;;;;;5014359;28;20752;-67
2022/12/25 08:47:40;;;;;;;8.60;5.07;;;9.30;99.90;;;;;;5013940;28;20463;-67
2022/12/25 08:50:08;;;;;;;8.17;5.03;;;9.30;99.90;;;;;;5013583;28;20467;-67
2022/12/25 08:52:35;;;;;;;7.20;4.70;;;9.30;99.90;;;;;;5013639;28;20464;-66
2022/12/25 08:55:02;;;;;;;11.57;6.57;;;9.30;99.90;;;;;;5014349;28;20460;-67
2022/12/25 08:57:30;;;;;;;9.23;4.97;;;9.40;99.90;;;;;;5017964;28;20877;-66
2022/12/25 08:59:58;;;;;;;10.03;4.63;;;9.40;99.90;;;;;;5033631;28;20506;-67
2022/12/25 09:02:25;;;;;;;10.40;5.20;;;9.40;99.90;;;;;;5034656;28;20498;-67
2022/12/25 09:04:52;;;;;;;11.07;5.50;;;9.40;99.90;;;;;;5027434;28;20505;-67
2022/12/25 09:07:20;;;;;;;8.13;4.30;;;9.40;99.90;;;;;;5026241;28;20570;-67
2022/12/25 09:09:47;;;;;;;11.37;4.50;;;9.40;99.90;;;;;;5028922;28;20565;-66
2022/12/25 09:12:14;;;;;;;8.93;5.20;;;9.50;99.90;;;;;;5030610;28;20463;-66
2022/12/25 09:14:41;;;;;;;8.17;5.07;;;9.50;99.90;;;;;;5022592;28;20476;-67
2022/12/25 09:17:10;;;;;;;9.23;5.00;;;9.50;99.90;;;;;;5020432;28;20474;-68
2022/12/25 09:19:37;;;;;;;6.53;4.07;;;9.50;99.90;;;;;;5017282;28;20769;-62
2022/12/25 09:22:04;;;;;;;5.90;4.27;;;9.50;99.90;;;;;;5018197;28;20590;-64
2022/12/25 09:24:31;;;;;;;6.37;4.27;;;9.50;99.90;;;;;;5019152;28;20464;-63
2022/12/25 09:26:58;;;;;;;8.80;4.97;;;9.50;99.90;;;;;;5019439;28;20464;-63
2022/12/25 09:29:27;;;;;;;9.63;4.57;;;9.40;99.90;;;;;;5020328;28;20468;-64
2022/12/25 09:31:54;;;;;;;8.87;5.00;;;9.40;99.90;;;;;;5019273;28;20464;-64
2022/12/25 09:34:23;;;;;;;8.10;5.67;;;9.40;99.90;;;;;;5025581;28;20463;-65
2022/12/25 09:36:50;;;;;;;8.47;5.23;;;9.40;99.90;;;;;;5027931;28;20470;-65
2022/12/25 09:39:17;;;;;;;5.53;4.80;;;9.40;99.90;;;;;;5020800;28;20460;-64
2022/12/25 09:41:54;;;;;;;8.77;4.30;;;9.40;99.90;;;;;;5018375;28;20909;-64
2022/12/25 09:44:27;;;;;;;8.10;5.00;;;9.40;99.90;;;;;;5018629;28;20538;-65
2022/12/25 09:46:56;;;;;;;7.67;5.50;;;9.40;99.90;;;;;;5020831;28;20475;-65
2022/12/25 09:49:37;;;;;;;5.67;4.80;;;9.30;99.90;;;;;;5028541;28;20732;-65
2022/12/25 09:52:09;;;;;;;9.03;4.10;;;9.30;99.90;;;;;;5017757;28;20459;-64
2022/12/25 09:54:50;;;;;;;7.30;4.80;;;9.30;99.90;;;;;;5018268;28;20463;-64
2022/12/25 09:57:17;;;;;;;8.07;4.50;;;9.30;99.90;;;;;;5017481;28;20758;-64
2022/12/25 09:59:46;;;;;;;8.70;4.57;;;9.40;99.90;;;;;;5019029;28;20961;-64
2022/12/25 10:02:42;;;;;;;8.80;4.47;;;9.30;99.90;;;;;;5019133;28;20484;-63
2022/12/25 10:05:47;;;;;;;7.17;4.73;;;9.40;99.90;;;;;;5018951;28;20502;-64
2022/12/25 10:08:23;;;;;;;9.10;5.73;;;9.30;99.90;;;;;;5015535;28;20474;-64
2022/12/25 10:10:52;;;;;;;6.63;4.40;;;9.30;99.90;;;;;;5026297;28;20543;-64
2022/12/25 10:13:44;;;;;;;7.20;4.07;;;9.40;99.90;;;;;;5025236;28;20456;-64
2022/12/25 10:16:22;;;;;;;4.43;4.03;;;9.40;99.90;;;;;;5017019;28;20535;-63
2022/12/25 10:19:06;;;;;;;4.07;3.60;;;9.40;99.90;;;;;;5017074;28;20458;-64
2022/12/25 10:21:34;;;;;;;5.77;3.97;;;9.40;99.90;;;;;;5017684;28;20456;-64
2022/12/25 10:24:10;;;;;;;9.43;4.87;;;9.40;99.90;;;;;;5018615;28;20880;-64
2022/12/25 10:26:37;;;;;;;5.73;3.23;;;9.40;99.90;;;;;;5026140;28;20975;-64
2022/12/25 10:29:13;;;;;;;6.13;3.07;;;9.40;99.90;;;;;;5023306;28;20456;-64
2022/12/25 10:31:41;;;;;;;4.60;3.40;;;9.40;99.90;;;;;;5018822;28;20471;-64
2022/12/25 10:34:10;;;;;;;5.83;3.03;;;9.50;99.90;;;;;;5019663;28;20546;-63
2022/12/25 10:36:39;;;;;;;4.80;3.60;;;9.40;99.90;;;;;;5002125;28;20470;-63
2022/12/25 10:39:07;;;;;;;4.73;3.50;;;9.40;99.90;;;;;;5018997;28;20468;-62
2022/12/25 10:41:52;;;;;;;4.80;3.60;;;9.40;99.90;;;;;;5019554;28;20465;-62
2022/12/25 10:44:24;;;;;;;9.33;4.37;;;9.50;99.90;;;;;;5018720;28;20492;-63
2022/12/25 10:46:53;;;;;;;5.77;3.40;;;9.50;99.90;;;;;;5018559;28;20570;-64
2022/12/25 10:49:22;;;;;;;4.10;3.70;;;9.50;99.90;;;;;;5017651;28;20470;-64
2022/12/25 10:51:52;;;;;;;3.90;3.40;;;9.50;99.90;;;;;;5019012;28;20463;-64
2022/12/25 10:54:25;;;;;;;4.63;3.20;;;9.50;99.90;;;;;;5019183;28;20752;-64
2022/12/25 10:56:57;;;;;;;5.40;4.17;;;9.50;99.90;;;;;;5018494;28;20468;-64
2022/12/25 10:59:25;;;;;;;5.40;4.17;;;9.50;99.90;;;;;;5018557;28;20464;-64
2022/12/25 11:01:52;;;;;;;4.90;3.73;;;9.50;99.90;;;;;;5018745;28;20525;-64
2022/12/25 11:04:21;;;;;;;5.60;4.07;;;9.50;99.90;;;;;;5018555;28;20492;-64
2022/12/25 11:07:00;;;;;;;6.73;4.10;;;9.50;99.90;;;;;;5018462;28;20935;-64
2022/12/25 11:09:28;;;;;;;5.73;3.90;;;9.60;99.90;;;;;;5018917;28;20855;-64
2022/12/25 11:11:57;;;;;;;5.77;3.70;;;9.60;99.90;;;;;;5018643;28;20558;-65
2022/12/25 11:14:26;;;;;;;6.97;3.40;;;9.60;99.90;;;;;;5017892;28;20470;-65
2022/12/25 11:16:53;;;;;;;3.70;3.13;;;9.50;99.90;;;;;;5018368;28;20897;-65
2022/12/25 11:19:26;;;;;;;4.73;3.27;;;9.60;99.90;;;;;;5018494;28;20742;-66
2022/12/25 11:21:54;;;;;;;4.23;3.23;;;9.60;99.90;;;;;;5018681;28;20457;-64
2022/12/25 11:24:27;;;;;;;4.87;3.07;;;9.70;99.90;;;;;;5017989;28;20496;-64
2022/12/25 11:26:56;;;;;;;5.53;3.90;;;9.70;99.90;;;;;;5018404;28;20470;-64
2022/12/25 11:29:28;;;;;;;7.13;3.57;;;9.70;99.90;;;;;;5018172;28;20758;-65
2022/12/25 11:31:59;;;;;;;4.80;3.00;;;9.70;99.90;;;;;;5017383;28;20826;-64
2022/12/25 11:34:32;;;;;;;6.30;3.40;;;9.70;99.90;;;;;;5018397;28;20455;-64
2022/12/25 11:37:01;;;;;;;6.73;5.60;;;9.70;99.90;;;;;;5034925;28;20545;-64
2022/12/25 11:39:31;;;;;;;4.00;3.60;;;9.70;99.90;;;;;;5037058;28;20459;-64
2022/12/25 11:42:03;;;;;;;3.80;3.43;;;9.80;99.90;;;;;;5036484;28;20455;-64
2022/12/25 11:44:37;;;;;;;4.50;3.17;;;9.80;99.90;;;;;;5036185;28;20495;-65
2022/12/25 11:47:11;;;;;;;4.83;3.27;;;9.80;99.90;;;;;;5036253;28;20494;-64
2022/12/25 11:49:45;;;;;;;4.80;3.30;;;9.90;99.90;;;;;;5026668;28;20467;-65
2022/12/25 11:52:14;;;;;;;4.63;3.00;;;9.90;99.90;;;;;;5016947;28;20464;-65
2022/12/25 11:54:50;;;;;;;3.80;2.60;;;9.90;99.90;;;;;;5016374;28;20759;-66
2022/12/25 11:57:18;;;;;;;3.30;2.70;;;10.00;99.90;;;;;;5016428;28;20569;-65
2022/12/25 11:59:52;;;;;;;4.23;2.90;;;10.00;99.90;;;;;;5015316;28;20468;-65
2022/12/25 12:02:26;;;;;;;5.80;3.03;;;10.00;99.90;;;;;;5014917;28;20462;-65
2022/12/25 12:05:08;;;;;;;3.97;2.50;;;9.90;99.90;;;;;;5013934;28;20484;-65
2022/12/25 12:07:37;;;;;;;4.03;3.20;;;9.90;99.90;;;;;;5015485;28;20472;-65
2022/12/25 12:10:14;;;;;;;5.50;3.90;;;9.90;99.90;;;;;;5016444;28;20563;-65
2022/12/25 12:12:52;;;;;;;4.13;3.67;;;9.90;99.90;;;;;;5015804;28;20471;-65
2022/12/25 12:15:29;;;;;;;6.77;3.63;;;9.80;99.90;;;;;;5017109;28;20561;-64
2022/12/25 12:18:07;;;;;;;4.70;4.20;;;9.80;99.90;;;;;;5016815;28;20467;-66
2022/12/25 12:20:36;;;;;;;5.83;4.10;;;9.80;99.90;;;;;;5016358;28;20748;-64
2022/12/25 12:23:11;;;;;;;5.33;4.80;;;9.90;99.90;;;;;;5016568;28;20492;-64
2022/12/25 12:25:42;;;;;;;7.33;5.23;;;9.80;99.90;;;;;;5016446;28;20966;-64
2022/12/25 12:28:20;;;;;;;5.97;4.37;;;9.80;99.90;;;;;;5016904;28;20468;-64
2022/12/25 12:30:58;;;;;;;5.93;4.47;;;9.90;99.90;;;;;;5015723;28;20468;-64
2022/12/25 12:33:30;;;;;;;5.30;4.60;;;9.80;99.90;;;;;;5017830;28;20517;-64
2022/12/25 12:35:58;;;;;;;5.10;4.57;;;9.90;99.90;;;;;;5017542;28;20463;-64
2022/12/25 12:38:26;;;;;;;5.73;5.10;;;9.80;99.90;;;;;;5017019;28;20468;-66
2022/12/25 12:40:57;;;;;;;7.50;4.87;;;9.80;99.90;;;;;;5017109;28;20893;-66
2022/12/25 12:43:33;;;;;;;6.80;5.70;;;9.80;99.90;;;;;;5017717;28;20781;-66
2022/12/25 12:46:07;;;;;;;9.43;5.50;;;9.80;99.90;;;;;;5020795;28;20459;-65
2022/12/25 12:48:44;;;;;;;6.20;5.60;;;9.80;99.90;;;;;;5019893;28;20459;-66
2022/12/25 12:51:14;;;;;;;8.10;6.30;;;9.90;99.90;;;;;;5020544;28;20467;-65
2022/12/25 12:53:43;;;;;;;7.70;5.80;;;9.90;99.90;;;;;;5020853;28;20460;-65
2022/12/25 12:56:13;;;;;;;6.90;5.60;;;9.90;99.90;;;;;;5020134;28;20438;-65
2022/12/25 12:58:48;;;;;;;8.53;6.90;;;9.90;99.90;;;;;;5020166;28;20499;-65
2022/12/25 13:01:39;;;;;;;9.40;6.07;;;9.90;99.90;;;;;;5020298;28;20467;-65
2022/12/25 13:04:42;;;;;;;10.10;7.30;;;9.90;99.90;;;;;;5020675;28;20492;-65
2022/12/25 13:07:21;;;;;;;8.40;7.50;;;10.00;99.90;;;;;;5003528;28;20551;-64
2022/12/25 13:10:08;;;;;;;9.87;8.70;;;10.00;99.90;;;;;;5008069;28;20455;-65
2022/12/25 13:12:37;;;;;;;9.53;6.93;;;10.00;99.90;;;;;;5010688;28;20961;-66
2022/12/25 13:15:11;;;;;;;10.73;7.60;;;10.00;99.90;;;;;;5007340;28;20770;-66
2022/12/25 13:17:38;;;;;;;10.10;7.63;;;10.00;99.90;;;;;;4997494;28;20457;-66
2022/12/25 13:20:07;;;;;;;8.70;7.33;;;10.00;99.90;;;;;;5005331;28;20468;-65
2022/12/25 13:22:36;;;;;;;9.93;6.97;;;10.10;99.90;;;;;;5000788;28;20878;-65
2022/12/25 13:25:08;;;;;;;11.20;8.50;;;10.10;99.90;;;;;;5006853;28;20491;-65
2022/12/25 13:27:37;;;;;;;13.20;7.00;;;10.10;99.90;;;;;;5005950;28;20460;-65
2022/12/25 13:30:13;;;;;;;9.50;6.87;;;10.10;99.90;;;;;;5007387;28;20457;-66
2022/12/25 13:32:40;;;;;;;8.50;6.80;;;10.10;99.90;;;;;;4996844;28;20438;-66
2022/12/25 13:35:12;;;;;;;8.70;6.40;;;10.20;99.90;;;;;;5004473;28;20460;-65
2022/12/25 13:37:39;;;;;;;9.03;7.27;;;10.20;99.90;;;;;;4997011;28;20457;-66
2022/12/25 13:40:17;;;;;;;11.93;6.73;;;10.20;99.90;;;;;;5005171;28;20461;-65
2022/12/25 13:42:47;;;;;;;12.07;8.37;;;10.20;99.90;;;;;;4997002;28;20463;-65
2022/12/25 13:45:23;;;;;;;10.50;7.60;;;10.20;99.90;;;;;;5006287;28;20503;-67
2022/12/25 13:47:51;;;;;;;10.23;7.43;;;10.20;99.90;;;;;;5007067;28;20445;-64
2022/12/25 13:50:22;;;;;;;14.20;7.50;;;10.20;99.90;;;;;;5008733;28;20435;-65
2022/12/25 13:52:50;;;;;;;11.33;8.07;;;10.30;99.90;;;;;;5002226;28;20898;-65
2022/12/25 13:55:18;;;;;;;13.70;8.93;;;10.30;99.90;;;;;;4998636;28;20461;-64
2022/12/25 13:57:52;;;;;;;16.80;10.73;;;10.30;99.90;;;;;;4999331;28;20461;-65
2022/12/25 14:00:22;;;;;;;14.93;10.13;;;10.30;99.90;;;;;;5010118;28;20468;-65
2022/12/25 14:02:49;;;;;;;14.40;10.73;;;10.30;99.90;;;;;;5018362;28;20829;-65
2022/12/25 14:05:26;;;;;;;13.50;10.67;;;10.20;99.90;;;;;;5026706;28;20949;-64
2022/12/25 14:07:53;;;;;;;9.90;8.07;;;10.30;99.90;;;;;;5038910;28;20462;-64
2022/12/25 14:10:22;;;;;;;11.93;8.80;;;10.30;99.90;;;;;;5038859;28;20549;-65
2022/12/25 14:12:51;;;;;;;10.07;8.60;;;10.30;99.90;;;;;;5028344;28;20555;-65
2022/12/25 14:15:21;;;;;;;10.37;7.30;;;10.40;99.90;;;;;;5018349;28;20439;-64
2022/12/25 14:17:48;;;;;;;9.50;8.13;;;10.30;99.90;;;;;;5018327;28;20924;-64
2022/12/25 14:20:24;;;;;;;8.60;7.00;;;10.40;99.90;;;;;;5018758;28;20471;-65
2022/12/25 14:22:53;;;;;;;11.93;7.87;;;10.40;99.90;;;;;;5018805;28;20467;-64
2022/12/25 14:25:22;;;;;;;11.93;7.60;;;10.40;99.90;;;;;;5019023;28;20749;-64
2022/12/25 14:27:52;;;;;;;12.50;8.47;;;10.40;99.90;;;;;;5018867;28;20464;-65
2022/12/25 14:30:19;;;;;;;9.93;8.40;;;10.40;99.90;;;;;;5018807;28;20435;-65
2022/12/25 14:32:50;;;;;;;10.27;8.43;;;10.30;99.90;;;;;;5018884;28;20460;-64
2022/12/25 14:35:19;;;;;;;12.47;8.23;;;10.30;99.90;;;;;;5018441;28;20456;-64
2022/12/25 14:37:47;;;;;;;11.17;8.10;;;10.30;99.90;;;;;;5018375;28;20443;-64
2022/12/25 14:40:24;;;;;;;10.70;8.00;;;10.30;99.90;;;;;;5018637;28;20471;-65
2022/12/25 14:43:00;;;;;;;11.63;8.43;;;10.30;99.90;;;;;;5017932;28;20892;-65
2022/12/25 14:45:30;;;;;;;14.53;9.20;;;10.40;99.90;;;;;;5018608;28;20519;-64
2022/12/25 14:47:59;;;;;;;11.60;8.20;;;10.40;99.90;;;;;;5017406;28;20471;-64
2022/12/25 14:50:29;;;;;;;13.10;7.70;;;10.40;99.90;;;;;;5017436;28;20514;-64